WetterOnline ( https://www.wetteronline.ch )

Wetter aktuell Grevesmühlen

Aktuelles Wetter: Boltenhagen (17m)

6-stündlich | Neueste Meldungen
Ortszeit Temperatur Wetter
Di, 12.11. 13:00 7.7° C leicht bewölkt
Di, 12.11. 7:00 3.5° C bewölkt
Di, 12.11. 1:00 2.1° C leicht bewölkt
Mo, 11.11. 19:00 2.6° C bewölkt
Mo, 11.11. 13:00 2.6° C wolkig
Mo, 11.11. 7:00 -0.0° C wolkenlos
Mo, 11.11. 1:00 1.7° C wolkenlos
So, 10.11. 19:00 3.6° C wolkenlos
Ortszeit Temperatur Wetter
Di, 12.11. 16:00 6.0° C wolkenlos
Di, 12.11. 15:50 6.0° C wolkenlos
Di, 12.11. 15:40 6.5° C wolkenlos
Di, 12.11. 15:30 6.9° C wolkenlos
Di, 12.11. 15:20 6.9° C wolkenlos
Di, 12.11. 15:10 6.9° C leicht bewölkt
Di, 12.11. 15:00 7.2° C bewölkt
Di, 12.11. 14:30 7.8° C bewölkt
Di, 12.11. 14:00 7.5° C leicht bewölkt
Di, 12.11. 13:30 7.6° C fast wolkenlos
Di, 12.11. 13:00 7.7° C leicht bewölkt
Ortszeit Relative Feuchte Sichtweite
Di, 12.11. 13:00 68% >70 km
Di, 12.11. 7:00 84% 19 km
Di, 12.11. 1:00 88% 14 km
Mo, 11.11. 19:00 86% 22 km
Mo, 11.11. 13:00 85% 20 km
Mo, 11.11. 7:00 94% 4.5 km
Mo, 11.11. 1:00 95% 4.9 km
So, 10.11. 19:00 91% 13 km
Ortszeit Relative Feuchte Sichtweite
Di, 12.11. 16:00 72% 65 km
Di, 12.11. 15:50 72% -
Di, 12.11. 15:40 70% -
Di, 12.11. 15:30 69% 60 km
Di, 12.11. 15:20 69% -
Di, 12.11. 15:10 69% -
Di, 12.11. 15:00 67% >70 km
Di, 12.11. 14:30 64% 65 km
Di, 12.11. 14:00 67% 60 km
Di, 12.11. 13:30 67% 55 km
Di, 12.11. 13:00 68% >70 km
Ortszeit Niederschlagsmenge Niederschlagsart
Di, 12.11. 13:00 0.0 l/m2 in 6 Std. -
Di, 12.11. 7:00 0.0 l/m2 in 12 Std. -
Di, 12.11. 1:00 0.0 l/m2 in 6 Std. -
Mo, 11.11. 19:00 0.0 l/m2 in 12 Std. -
Mo, 11.11. 13:00 0.0 l/m2 in 6 Std. -
Mo, 11.11. 7:00 0.0 l/m2 in 12 Std. -
Mo, 11.11. 1:00 0.0 l/m2 in 6 Std. -
So, 10.11. 19:00 0.0 l/m2 in 12 Std. -
Ortszeit Niederschlagsmenge Niederschlagsart
Di, 12.11. 16:00 0.0 l/m2 in 1 Std. -
Di, 12.11. 15:50 keine Meldung -
Di, 12.11. 15:40 keine Meldung -
Di, 12.11. 15:30 0.0 l/m2 in 1 Std. -
Di, 12.11. 15:20 keine Meldung -
Di, 12.11. 15:10 keine Meldung -
Di, 12.11. 15:00 0.0 l/m2 in 1 Std. -
Di, 12.11. 14:30 0.0 l/m2 in 1 Std. -
Di, 12.11. 14:00 0.0 l/m2 in 1 Std. -
Di, 12.11. 13:30 0.0 l/m2 in 1 Std. -
Di, 12.11. 13:00 0.0 l/m2 in 1 Std. -
Ortszeit Stärke Spitze Richtung
km/h Bft. km/h Grad Sektor
Di, 12.11. 13:00 22 4 43 180° S
Di, 12.11. 7:00 17 3 31 170° S
Di, 12.11. 1:00 18 3 40 170° S
Mo, 11.11. 19:00 26 4 46 150° SO
Mo, 11.11. 13:00 22 4 36 170° S
Mo, 11.11. 7:00 15 3 31 180° S
Mo, 11.11. 1:00 17 3 26 210° SW
So, 10.11. 19:00 15 3 20 180° S
Ortszeit Stärke Spitze Richtung
km/h Bft. km/h Grad Sektor
Di, 12.11. 16:00 15 3 30 160° S
Di, 12.11. 15:50 15 3 - 160° S
Di, 12.11. 15:40 18 3 - 160° S
Di, 12.11. 15:30 17 3 30 170° S
Di, 12.11. 15:20 17 3 - 170° S
Di, 12.11. 15:10 18 3 - 170° S
Di, 12.11. 15:00 17 3 35 170° S
Di, 12.11. 14:30 20 4 35 190° S
Di, 12.11. 14:00 25 4 47 170° S
Di, 12.11. 13:30 22 4 47 180° S
Di, 12.11. 13:00 22 4 40 180° S
Ortszeit Untergrenze Bedeckung Gattung
total tief tief mittel hoch
Di, 12.11. 13:00 750 m 2/8 2/8 - - -
Di, 12.11. 7:00 720 m 8/8 7/8 - - -
Di, 12.11. 1:00 1140 m 5/8 3/8 - - -
Mo, 11.11. 19:00 300 m 8/8 7/8 - - -
Mo, 11.11. 13:00 180 m 6/8 6/8 - - -
Mo, 11.11. 7:00 - 0/8 0/8 - - -
Mo, 11.11. 1:00 - 0/8 0/8 - - -
So, 10.11. 19:00 - 0/8 0/8 - - -
Ortszeit Bedeckungsgrad in Achtel und Wolkenuntergrenze
Di, 12.11. 16:00 keine Wolken
Di, 12.11. 15:50 keine Wolken
Di, 12.11. 15:40 keine Wolken
Di, 12.11. 15:30 keine Wolken
Di, 12.11. 15:20 keine Wolken
Di, 12.11. 15:10 2(1080m)
Di, 12.11. 15:00 7(1080m)
Di, 12.11. 14:30 7(960m)
Di, 12.11. 14:00 4(780m)
Di, 12.11. 13:30 3(750m)
Di, 12.11. 13:00 2(750m)
Ortszeit Luftdruck NN (hPa) Tendenz (hPa in 3 Std.)
Di, 12.11. 13:00 1002 - 0,3
Di, 12.11. 7:00 1002 0,0
Di, 12.11. 1:00 1003 - 0,8
Mo, 11.11. 19:00 1005 - 1,2
Mo, 11.11. 13:00 1009 - 1,5
Mo, 11.11. 7:00 1011 - 1,4
Mo, 11.11. 1:00 1013 - 0,9
So, 10.11. 19:00 1015 + 0,6
Ortszeit Luftdruck NN (hPa) Tendenz (hPa in 3 Std.)
Di, 12.11. 16:00 1003 + 0,2
Di, 12.11. 15:50 1003 keine Meldung
Di, 12.11. 15:40 1003 keine Meldung
Di, 12.11. 15:30 1002 + 0,2
Di, 12.11. 15:20 1002 keine Meldung
Di, 12.11. 15:10 1002 keine Meldung
Di, 12.11. 15:00 1002 - 0,3
Di, 12.11. 14:30 1002 - 0,5
Di, 12.11. 14:00 1002 - 0,4
Di, 12.11. 13:30 1002 - 0,4
Di, 12.11. 13:00 1002 - 0,3
Ortszeit Schneehöhe (cm)
Di, 12.11. 13:00 0
Di, 12.11. 7:00 0
Di, 12.11. 1:00 0
Mo, 11.11. 19:00 0
Mo, 11.11. 13:00 0
Mo, 11.11. 7:00 0
Mo, 11.11. 1:00 0
So, 10.11. 19:00 0
Ortszeit Schneehöhe (cm)
Di, 12.11. 16:00 0
Di, 12.11. 15:50 0
Di, 12.11. 15:40 0
Di, 12.11. 15:30 0
Di, 12.11. 15:20 0
Di, 12.11. 15:10 0
Di, 12.11. 15:00 0
Di, 12.11. 14:30 0
Di, 12.11. 14:00 0
Di, 12.11. 13:30 0
Di, 12.11. 13:00 0
Link zu dieser Seite / Seite empfehlen

Das Wetter in ...